sensor_id;sensor_type;location;lat;lon;timestamp;temperature;humidity
15819;DHT22;8010;53.986;12.106;2023-09-07T00:00:47;17.00;99.90
15819;DHT22;8010;53.986;12.106;2023-09-07T00:03:13;17.00;99.90
15819;DHT22;8010;53.986;12.106;2023-09-07T00:05:39;17.00;99.90
15819;DHT22;8010;53.986;12.106;2023-09-07T00:08:04;17.00;99.90
15819;DHT22;8010;53.986;12.106;2023-09-07T00:10:31;17.00;99.90
15819;DHT22;8010;53.986;12.106;2023-09-07T00:12:57;17.10;99.90
15819;DHT22;8010;53.986;12.106;2023-09-07T00:15:22;17.00;99.90
15819;DHT22;8010;53.986;12.106;2023-09-07T00:17:48;17.00;99.90
15819;DHT22;8010;53.986;12.106;2023-09-07T00:20:14;17.00;99.90
15819;DHT22;8010;53.986;12.106;2023-09-07T00:22:40;17.00;99.90
15819;DHT22;8010;53.986;12.106;2023-09-07T00:25:06;17.00;99.90
15819;DHT22;8010;53.986;12.106;2023-09-07T00:27:34;17.00;99.90
15819;DHT22;8010;53.986;12.106;2023-09-07T00:30:00;16.90;99.90
15819;DHT22;8010;53.986;12.106;2023-09-07T00:32:25;16.90;99.90
15819;DHT22;8010;53.986;12.106;2023-09-07T00:34:51;18.10;99.90
15819;DHT22;8010;53.986;12.106;2023-09-07T00:37:16;16.80;99.90
15819;DHT22;8010;53.986;12.106;2023-09-07T00:39:42;16.70;99.90
15819;DHT22;8010;53.986;12.106;2023-09-07T00:42:08;16.70;99.90
15819;DHT22;8010;53.986;12.106;2023-09-07T00:44:33;16.70;99.90
15819;DHT22;8010;53.986;12.106;2023-09-07T00:46:59;16.60;99.90
15819;DHT22;8010;53.986;12.106;2023-09-07T00:49:25;16.60;99.90
15819;DHT22;8010;53.986;12.106;2023-09-07T00:51:51;16.60;99.90
15819;DHT22;8010;53.986;12.106;2023-09-07T00:54:17;16.60;99.90
15819;DHT22;8010;53.986;12.106;2023-09-07T00:56:43;16.50;99.90
15819;DHT22;8010;53.986;12.106;2023-09-07T00:59:09;16.50;99.90
15819;DHT22;8010;53.986;12.106;2023-09-07T01:01:36;16.50;99.90
15819;DHT22;8010;53.986;12.106;2023-09-07T01:04:02;16.50;99.90
15819;DHT22;8010;53.986;12.106;2023-09-07T01:06:39;16.40;99.90
15819;DHT22;8010;53.986;12.106;2023-09-07T01:09:14;16.40;99.90
15819;DHT22;8010;53.986;12.106;2023-09-07T01:11:40;16.40;99.90
15819;DHT22;8010;53.986;12.106;2023-09-07T01:14:05;16.40;99.90
15819;DHT22;8010;53.986;12.106;2023-09-07T01:16:32;16.40;99.90
15819;DHT22;8010;53.986;12.106;2023-09-07T01:19:01;16.40;99.90
15819;DHT22;8010;53.986;12.106;2023-09-07T01:21:34;16.40;99.90
15819;DHT22;8010;53.986;12.106;2023-09-07T01:24:00;16.30;99.90
15819;DHT22;8010;53.986;12.106;2023-09-07T01:26:26;16.30;99.90
15819;DHT22;8010;53.986;12.106;2023-09-07T01:28:52;16.30;99.90
15819;DHT22;8010;53.986;12.106;2023-09-07T01:31:17;16.30;99.90
15819;DHT22;8010;53.986;12.106;2023-09-07T01:33:43;16.30;99.90
15819;DHT22;8010;53.986;12.106;2023-09-07T01:36:08;16.20;99.90
15819;DHT22;8010;53.986;12.106;2023-09-07T01:38:34;16.20;99.90
15819;DHT22;8010;53.986;12.106;2023-09-07T01:40:59;16.20;99.90
15819;DHT22;8010;53.986;12.106;2023-09-07T01:43:25;16.20;99.90
15819;DHT22;8010;53.986;12.106;2023-09-07T01:45:51;16.20;99.90
15819;DHT22;8010;53.986;12.106;2023-09-07T01:48:16;16.00;99.90
15819;DHT22;8010;53.986;12.106;2023-09-07T01:50:42;16.10;99.90
15819;DHT22;8010;53.986;12.106;2023-09-07T01:53:07;16.10;99.90
15819;DHT22;8010;53.986;12.106;2023-09-07T01:55:33;16.10;99.90
15819;DHT22;8010;53.986;12.106;2023-09-07T01:57:59;16.10;99.90
15819;DHT22;8010;53.986;12.106;2023-09-07T02:00:24;16.10;99.90
15819;DHT22;8010;53.986;12.106;2023-09-07T02:02:50;16.10;99.90
15819;DHT22;8010;53.986;12.106;2023-09-07T02:05:15;16.10;99.90
15819;DHT22;8010;53.986;12.106;2023-09-07T02:07:42;16.10;99.90
15819;DHT22;8010;53.986;12.106;2023-09-07T02:10:08;16.10;99.90
15819;DHT22;8010;53.986;12.106;2023-09-07T02:12:33;16.10;99.90
15819;DHT22;8010;53.986;12.106;2023-09-07T02:15:01;16.10;99.90
15819;DHT22;8010;53.986;12.106;2023-09-07T02:17:28;16.10;99.90
15819;DHT22;8010;53.986;12.106;2023-09-07T02:19:53;16.00;99.90
15819;DHT22;8010;53.986;12.106;2023-09-07T02:22:19;16.10;99.90
15819;DHT22;8010;53.986;12.106;2023-09-07T02:24:44;16.00;99.90
15819;DHT22;8010;53.986;12.106;2023-09-07T02:27:10;16.00;99.90
15819;DHT22;8010;53.986;12.106;2023-09-07T02:29:35;16.00;99.90
15819;DHT22;8010;53.986;12.106;2023-09-07T02:32:01;16.00;99.90
15819;DHT22;8010;53.986;12.106;2023-09-07T02:34:26;15.90;99.90
15819;DHT22;8010;53.986;12.106;2023-09-07T02:36:52;15.90;99.90
15819;DHT22;8010;53.986;12.106;2023-09-07T02:39:17;15.90;99.90
15819;DHT22;8010;53.986;12.106;2023-09-07T02:41:43;15.90;99.90
15819;DHT22;8010;53.986;12.106;2023-09-07T02:44:10;15.80;99.90
15819;DHT22;8010;53.986;12.106;2023-09-07T02:46:36;15.80;99.90
15819;DHT22;8010;53.986;12.106;2023-09-07T02:49:01;15.80;99.90
15819;DHT22;8010;53.986;12.106;2023-09-07T02:51:27;15.70;99.90
15819;DHT22;8010;53.986;12.106;2023-09-07T02:53:53;15.70;99.90
15819;DHT22;8010;53.986;12.106;2023-09-07T02:56:19;15.80;99.90
15819;DHT22;8010;53.986;12.106;2023-09-07T02:58:45;15.80;99.90
15819;DHT22;8010;53.986;12.106;2023-09-07T03:01:10;15.90;99.90
15819;DHT22;8010;53.986;12.106;2023-09-07T03:03:37;15.90;99.90
15819;DHT22;8010;53.986;12.106;2023-09-07T03:06:12;15.90;99.90
15819;DHT22;8010;53.986;12.106;2023-09-07T03:08:41;15.90;99.90
15819;DHT22;8010;53.986;12.106;2023-09-07T03:11:08;16.00;99.90
15819;DHT22;8010;53.986;12.106;2023-09-07T03:13:33;16.00;99.90
15819;DHT22;8010;53.986;12.106;2023-09-07T03:16:00;16.10;99.90
15819;DHT22;8010;53.986;12.106;2023-09-07T03:18:26;16.20;99.90
15819;DHT22;8010;53.986;12.106;2023-09-07T03:20:54;16.20;99.90
15819;DHT22;8010;53.986;12.106;2023-09-07T03:23:20;16.30;99.90
15819;DHT22;8010;53.986;12.106;2023-09-07T03:25:46;16.40;99.90
15819;DHT22;8010;53.986;12.106;2023-09-07T03:28:11;16.50;99.90
15819;DHT22;8010;53.986;12.106;2023-09-07T03:30:38;16.60;99.90
15819;DHT22;8010;53.986;12.106;2023-09-07T03:33:04;16.60;99.90
15819;DHT22;8010;53.986;12.106;2023-09-07T03:35:31;16.60;99.90
15819;DHT22;8010;53.986;12.106;2023-09-07T03:37:56;16.60;99.90
15819;DHT22;8010;53.986;12.106;2023-09-07T03:40:22;16.60;99.90
15819;DHT22;8010;53.986;12.106;2023-09-07T03:42:47;16.60;99.90
15819;DHT22;8010;53.986;12.106;2023-09-07T03:45:13;16.60;99.90
15819;DHT22;8010;53.986;12.106;2023-09-07T03:47:38;16.60;99.90
15819;DHT22;8010;53.986;12.106;2023-09-07T03:50:04;16.60;99.90
15819;DHT22;8010;53.986;12.106;2023-09-07T03:52:30;16.60;99.90
15819;DHT22;8010;53.986;12.106;2023-09-07T03:54:57;16.60;99.90
15819;DHT22;8010;53.986;12.106;2023-09-07T03:57:24;16.60;99.90
15819;DHT22;8010;53.986;12.106;2023-09-07T03:59:50;15.10;99.90
15819;DHT22;8010;53.986;12.106;2023-09-07T04:02:16;16.60;99.90
15819;DHT22;8010;53.986;12.106;2023-09-07T04:04:48;16.60;99.90
15819;DHT22;8010;53.986;12.106;2023-09-07T04:07:14;16.60;99.90
15819;DHT22;8010;53.986;12.106;2023-09-07T04:09:40;16.70;99.90
15819;DHT22;8010;53.986;12.106;2023-09-07T04:12:05;16.70;99.90
15819;DHT22;8010;53.986;12.106;2023-09-07T04:14:32;16.60;99.90
15819;DHT22;8010;53.986;12.106;2023-09-07T04:16:58;16.60;99.90
15819;DHT22;8010;53.986;12.106;2023-09-07T04:19:23;16.60;99.90
15819;DHT22;8010;53.986;12.106;2023-09-07T04:21:49;16.60;99.90
15819;DHT22;8010;53.986;12.106;2023-09-07T04:24:15;16.60;99.90
15819;DHT22;8010;53.986;12.106;2023-09-07T04:26:40;16.60;99.90
15819;DHT22;8010;53.986;12.106;2023-09-07T04:29:07;16.70;99.90
15819;DHT22;8010;53.986;12.106;2023-09-07T04:31:33;16.60;99.90
15819;DHT22;8010;53.986;12.106;2023-09-07T04:33:58;16.60;99.90
15819;DHT22;8010;53.986;12.106;2023-09-07T04:36:24;16.60;99.90
15819;DHT22;8010;53.986;12.106;2023-09-07T04:38:49;16.70;99.90
15819;DHT22;8010;53.986;12.106;2023-09-07T04:41:15;16.70;99.90
15819;DHT22;8010;53.986;12.106;2023-09-07T04:43:42;16.70;99.90
15819;DHT22;8010;53.986;12.106;2023-09-07T04:46:12;16.70;99.90
15819;DHT22;8010;53.986;12.106;2023-09-07T04:48:38;16.70;99.90
15819;DHT22;8010;53.986;12.106;2023-09-07T04:51:07;16.70;99.90
15819;DHT22;8010;53.986;12.106;2023-09-07T04:53:35;16.70;99.90
15819;DHT22;8010;53.986;12.106;2023-09-07T04:56:02;16.80;99.90
15819;DHT22;8010;53.986;12.106;2023-09-07T04:58:28;16.80;99.90
15819;DHT22;8010;53.986;12.106;2023-09-07T05:00:53;16.80;99.90
15819;DHT22;8010;53.986;12.106;2023-09-07T05:03:19;16.80;99.90
15819;DHT22;8010;53.986;12.106;2023-09-07T05:05:50;16.80;99.90
15819;DHT22;8010;53.986;12.106;2023-09-07T05:08:15;16.80;99.90
15819;DHT22;8010;53.986;12.106;2023-09-07T05:10:41;16.80;99.90
15819;DHT22;8010;53.986;12.106;2023-09-07T05:13:07;16.80;99.90
15819;DHT22;8010;53.986;12.106;2023-09-07T05:15:33;16.80;99.90
15819;DHT22;8010;53.986;12.106;2023-09-07T05:17:58;16.80;99.90
15819;DHT22;8010;53.986;12.106;2023-09-07T05:20:24;16.90;99.90
15819;DHT22;8010;53.986;12.106;2023-09-07T05:22:50;16.90;99.90
15819;DHT22;8010;53.986;12.106;2023-09-07T05:25:16;16.90;99.90
15819;DHT22;8010;53.986;12.106;2023-09-07T05:27:41;17.00;99.90
15819;DHT22;8010;53.986;12.106;2023-09-07T05:30:07;17.00;99.90
15819;DHT22;8010;53.986;12.106;2023-09-07T05:32:33;17.00;99.90
15819;DHT22;8010;53.986;12.106;2023-09-07T05:34:58;17.00;99.90
15819;DHT22;8010;53.986;12.106;2023-09-07T05:37:24;17.00;99.90
15819;DHT22;8010;53.986;12.106;2023-09-07T05:39:49;17.00;99.90
15819;DHT22;8010;53.986;12.106;2023-09-07T05:42:15;17.10;99.90
15819;DHT22;8010;53.986;12.106;2023-09-07T05:44:41;17.10;99.90
15819;DHT22;8010;53.986;12.106;2023-09-07T05:47:06;17.10;99.90
15819;DHT22;8010;53.986;12.106;2023-09-07T05:49:32;17.10;99.90
15819;DHT22;8010;53.986;12.106;2023-09-07T05:51:57;17.20;99.90
15819;DHT22;8010;53.986;12.106;2023-09-07T05:54:23;17.20;99.90
15819;DHT22;8010;53.986;12.106;2023-09-07T05:56:48;17.30;99.90
15819;DHT22;8010;53.986;12.106;2023-09-07T05:59:14;17.30;99.90
15819;DHT22;8010;53.986;12.106;2023-09-07T06:01:41;17.30;99.90
15819;DHT22;8010;53.986;12.106;2023-09-07T06:04:07;17.30;99.90
15819;DHT22;8010;53.986;12.106;2023-09-07T06:06:33;17.40;99.90
15819;DHT22;8010;53.986;12.106;2023-09-07T06:08:58;17.40;99.90
15819;DHT22;8010;53.986;12.106;2023-09-07T06:11:24;17.50;99.90
15819;DHT22;8010;53.986;12.106;2023-09-07T06:13:50;17.40;99.90
15819;DHT22;8010;53.986;12.106;2023-09-07T06:16:16;17.50;99.90
15819;DHT22;8010;53.986;12.106;2023-09-07T06:18:41;17.50;99.90
15819;DHT22;8010;53.986;12.106;2023-09-07T06:21:07;17.50;99.90
15819;DHT22;8010;53.986;12.106;2023-09-07T06:23:33;17.50;99.90
15819;DHT22;8010;53.986;12.106;2023-09-07T06:25:59;17.60;99.90
15819;DHT22;8010;53.986;12.106;2023-09-07T06:28:24;17.70;99.90
15819;DHT22;8010;53.986;12.106;2023-09-07T06:30:50;17.60;99.90
15819;DHT22;8010;53.986;12.106;2023-09-07T06:33:15;17.60;99.90
15819;DHT22;8010;53.986;12.106;2023-09-07T06:35:42;17.70;99.90
15819;DHT22;8010;53.986;12.106;2023-09-07T06:38:08;17.80;99.90
15819;DHT22;8010;53.986;12.106;2023-09-07T06:40:33;17.80;99.90
15819;DHT22;8010;53.986;12.106;2023-09-07T06:42:59;17.80;99.90
15819;DHT22;8010;53.986;12.106;2023-09-07T06:45:25;17.80;99.90
15819;DHT22;8010;53.986;12.106;2023-09-07T06:47:51;17.90;99.90
15819;DHT22;8010;53.986;12.106;2023-09-07T06:50:16;18.00;99.90
15819;DHT22;8010;53.986;12.106;2023-09-07T06:52:42;18.10;99.90
15819;DHT22;8010;53.986;12.106;2023-09-07T06:55:08;18.10;99.90
15819;DHT22;8010;53.986;12.106;2023-09-07T06:57:33;18.20;99.90
15819;DHT22;8010;53.986;12.106;2023-09-07T06:59:59;18.20;99.90
15819;DHT22;8010;53.986;12.106;2023-09-07T07:02:25;18.30;99.90
15819;DHT22;8010;53.986;12.106;2023-09-07T07:04:50;18.30;99.90
15819;DHT22;8010;53.986;12.106;2023-09-07T07:07:17;18.40;99.90
15819;DHT22;8010;53.986;12.106;2023-09-07T07:09:42;18.30;99.90
15819;DHT22;8010;53.986;12.106;2023-09-07T07:12:08;18.40;99.90
15819;DHT22;8010;53.986;12.106;2023-09-07T07:14:33;18.70;99.90
15819;DHT22;8010;53.986;12.106;2023-09-07T07:16:59;18.50;99.90
15819;DHT22;8010;53.986;12.106;2023-09-07T07:19:27;18.60;99.90
15819;DHT22;8010;53.986;12.106;2023-09-07T07:21:52;18.60;99.90
15819;DHT22;8010;53.986;12.106;2023-09-07T07:24:18;18.60;99.90
15819;DHT22;8010;53.986;12.106;2023-09-07T07:26:44;18.70;99.90
15819;DHT22;8010;53.986;12.106;2023-09-07T07:29:09;18.70;99.90
15819;DHT22;8010;53.986;12.106;2023-09-07T07:31:35;18.70;99.90
15819;DHT22;8010;53.986;12.106;2023-09-07T07:34:01;18.70;99.90
15819;DHT22;8010;53.986;12.106;2023-09-07T07:36:27;18.80;99.90
15819;DHT22;8010;53.986;12.106;2023-09-07T07:38:52;18.90;99.90
15819;DHT22;8010;53.986;12.106;2023-09-07T07:41:18;19.00;99.90
15819;DHT22;8010;53.986;12.106;2023-09-07T07:43:43;19.00;99.90
15819;DHT22;8010;53.986;12.106;2023-09-07T07:46:09;19.10;99.90
15819;DHT22;8010;53.986;12.106;2023-09-07T07:48:34;19.20;99.90
15819;DHT22;8010;53.986;12.106;2023-09-07T07:51:03;19.20;99.90
15819;DHT22;8010;53.986;12.106;2023-09-07T07:53:29;19.30;99.90
15819;DHT22;8010;53.986;12.106;2023-09-07T07:55:56;19.40;99.90
15819;DHT22;8010;53.986;12.106;2023-09-07T07:58:22;19.40;99.90
15819;DHT22;8010;53.986;12.106;2023-09-07T08:00:48;19.50;99.90
15819;DHT22;8010;53.986;12.106;2023-09-07T08:03:14;19.50;99.90
15819;DHT22;8010;53.986;12.106;2023-09-07T08:05:40;19.50;99.90
15819;DHT22;8010;53.986;12.106;2023-09-07T08:08:06;19.60;99.90
15819;DHT22;8010;53.986;12.106;2023-09-07T08:10:38;19.80;99.90
15819;DHT22;8010;53.986;12.106;2023-09-07T08:13:04;20.00;99.90
15819;DHT22;8010;53.986;12.106;2023-09-07T08:15:31;20.20;99.90
15819;DHT22;8010;53.986;12.106;2023-09-07T08:17:56;20.40;99.90
15819;DHT22;8010;53.986;12.106;2023-09-07T08:20:22;20.60;99.90
15819;DHT22;8010;53.986;12.106;2023-09-07T08:22:48;20.90;99.90
15819;DHT22;8010;53.986;12.106;2023-09-07T08:25:14;20.90;99.90
15819;DHT22;8010;53.986;12.106;2023-09-07T08:27:42;20.90;99.90
15819;DHT22;8010;53.986;12.106;2023-09-07T08:30:11;20.90;99.90
15819;DHT22;8010;53.986;12.106;2023-09-07T08:32:36;21.10;99.90
15819;DHT22;8010;53.986;12.106;2023-09-07T08:35:04;21.30;99.90
15819;DHT22;8010;53.986;12.106;2023-09-07T08:37:31;21.40;99.90
15819;DHT22;8010;53.986;12.106;2023-09-07T08:39:59;21.40;99.90
15819;DHT22;8010;53.986;12.106;2023-09-07T08:42:25;21.40;99.90
15819;DHT22;8010;53.986;12.106;2023-09-07T08:44:51;21.30;99.90
15819;DHT22;8010;53.986;12.106;2023-09-07T08:47:20;21.30;99.90
15819;DHT22;8010;53.986;12.106;2023-09-07T08:49:46;21.40;99.90
15819;DHT22;8010;53.986;12.106;2023-09-07T08:52:14;21.60;99.90
15819;DHT22;8010;53.986;12.106;2023-09-07T08:54:41;21.90;99.90
15819;DHT22;8010;53.986;12.106;2023-09-07T08:57:08;22.20;99.90
15819;DHT22;8010;53.986;12.106;2023-09-07T08:59:36;22.40;99.90
15819;DHT22;8010;53.986;12.106;2023-09-07T09:02:01;22.60;99.90
15819;DHT22;8010;53.986;12.106;2023-09-07T09:04:29;22.80;99.90
15819;DHT22;8010;53.986;12.106;2023-09-07T09:06:56;23.10;99.90
15819;DHT22;8010;53.986;12.106;2023-09-07T09:09:25;23.20;99.90
15819;DHT22;8010;53.986;12.106;2023-09-07T09:11:51;23.30;99.90
15819;DHT22;8010;53.986;12.106;2023-09-07T09:14:17;23.40;99.90
15819;DHT22;8010;53.986;12.106;2023-09-07T09:16:49;23.60;99.90
15819;DHT22;8010;53.986;12.106;2023-09-07T09:19:15;23.80;99.90
15819;DHT22;8010;53.986;12.106;2023-09-07T09:21:41;24.00;99.90
15819;DHT22;8010;53.986;12.106;2023-09-07T09:24:10;24.10;99.90
15819;DHT22;8010;53.986;12.106;2023-09-07T09:26:39;24.20;99.90
15819;DHT22;8010;53.986;12.106;2023-09-07T09:29:04;24.40;99.90
15819;DHT22;8010;53.986;12.106;2023-09-07T09:31:30;24.60;99.90
15819;DHT22;8010;53.986;12.106;2023-09-07T09:33:56;24.70;99.90
15819;DHT22;8010;53.986;12.106;2023-09-07T09:36:22;24.90;99.90
15819;DHT22;8010;53.986;12.106;2023-09-07T09:38:50;25.10;99.90
15819;DHT22;8010;53.986;12.106;2023-09-07T09:41:17;25.20;99.90
15819;DHT22;8010;53.986;12.106;2023-09-07T09:43:42;25.40;99.90
15819;DHT22;8010;53.986;12.106;2023-09-07T09:46:10;25.50;99.90
15819;DHT22;8010;53.986;12.106;2023-09-07T09:48:37;25.70;99.90
15819;DHT22;8010;53.986;12.106;2023-09-07T09:51:04;25.80;99.90
15819;DHT22;8010;53.986;12.106;2023-09-07T09:53:29;26.00;99.90
15819;DHT22;8010;53.986;12.106;2023-09-07T09:55:55;26.10;99.90
15819;DHT22;8010;53.986;12.106;2023-09-07T09:58:21;26.20;99.90
15819;DHT22;8010;53.986;12.106;2023-09-07T10:00:49;26.40;99.90
15819;DHT22;8010;53.986;12.106;2023-09-07T10:03:40;26.50;99.90
15819;DHT22;8010;53.986;12.106;2023-09-07T10:06:17;26.70;99.90
15819;DHT22;8010;53.986;12.106;2023-09-07T10:08:58;26.90;99.90
15819;DHT22;8010;53.986;12.106;2023-09-07T10:11:39;27.20;99.90
15819;DHT22;8010;53.986;12.106;2023-09-07T10:14:06;27.30;99.90
15819;DHT22;8010;53.986;12.106;2023-09-07T10:16:52;27.70;99.90
15819;DHT22;8010;53.986;12.106;2023-09-07T10:19:23;27.90;99.90
15819;DHT22;8010;53.986;12.106;2023-09-07T10:21:52;28.10;99.90
15819;DHT22;8010;53.986;12.106;2023-09-07T10:24:34;28.30;99.90
15819;DHT22;8010;53.986;12.106;2023-09-07T10:27:06;28.40;99.90
15819;DHT22;8010;53.986;12.106;2023-09-07T10:29:42;28.50;99.90
15819;DHT22;8010;53.986;12.106;2023-09-07T10:32:08;28.60;99.90
15819;DHT22;8010;53.986;12.106;2023-09-07T10:34:38;28.60;99.90
15819;DHT22;8010;53.986;12.106;2023-09-07T10:37:05;28.90;99.90
15819;DHT22;8010;53.986;12.106;2023-09-07T10:39:33;29.20;99.90
15819;DHT22;8010;53.986;12.106;2023-09-07T10:41:59;29.30;99.90
15819;DHT22;8010;53.986;12.106;2023-09-07T10:44:27;29.50;99.90
15819;DHT22;8010;53.986;12.106;2023-09-07T10:46:54;29.60;99.90
15819;DHT22;8010;53.986;12.106;2023-09-07T10:49:20;29.80;99.90
15819;DHT22;8010;53.986;12.106;2023-09-07T10:51:46;29.80;99.90
15819;DHT22;8010;53.986;12.106;2023-09-07T10:54:25;29.90;99.90
15819;DHT22;8010;53.986;12.106;2023-09-07T10:56:50;30.10;99.90
15819;DHT22;8010;53.986;12.106;2023-09-07T10:59:17;30.20;99.90
15819;DHT22;8010;53.986;12.106;2023-09-07T11:01:46;30.30;99.90
15819;DHT22;8010;53.986;12.106;2023-09-07T11:04:12;30.40;99.90
15819;DHT22;8010;53.986;12.106;2023-09-07T11:06:40;30.50;99.90
15819;DHT22;8010;53.986;12.106;2023-09-07T11:09:06;30.60;99.90
15819;DHT22;8010;53.986;12.106;2023-09-07T11:11:35;30.70;99.90
15819;DHT22;8010;53.986;12.106;2023-09-07T11:14:02;30.70;99.90
15819;DHT22;8010;53.986;12.106;2023-09-07T11:16:29;30.90;99.90
15819;DHT22;8010;53.986;12.106;2023-09-07T11:18:54;31.10;99.90
15819;DHT22;8010;53.986;12.106;2023-09-07T11:21:20;31.30;99.90
15819;DHT22;8010;53.986;12.106;2023-09-07T11:23:46;31.50;99.90
15819;DHT22;8010;53.986;12.106;2023-09-07T11:26:12;31.60;99.90
15819;DHT22;8010;53.986;12.106;2023-09-07T11:28:38;31.70;99.90
15819;DHT22;8010;53.986;12.106;2023-09-07T11:31:04;31.80;99.90
15819;DHT22;8010;53.986;12.106;2023-09-07T11:33:33;31.90;99.90
15819;DHT22;8010;53.986;12.106;2023-09-07T11:35:58;31.80;99.90
15819;DHT22;8010;53.986;12.106;2023-09-07T11:38:29;31.80;99.90
15819;DHT22;8010;53.986;12.106;2023-09-07T11:40:59;31.80;99.90
15819;DHT22;8010;53.986;12.106;2023-09-07T11:43:25;31.70;99.90
15819;DHT22;8010;53.986;12.106;2023-09-07T11:45:50;31.70;99.90
15819;DHT22;8010;53.986;12.106;2023-09-07T11:48:16;31.80;99.90
15819;DHT22;8010;53.986;12.106;2023-09-07T11:50:43;31.80;99.90
15819;DHT22;8010;53.986;12.106;2023-09-07T11:53:09;31.80;99.90
15819;DHT22;8010;53.986;12.106;2023-09-07T11:55:35;31.60;99.90
15819;DHT22;8010;53.986;12.106;2023-09-07T11:58:04;31.60;99.90
15819;DHT22;8010;53.986;12.106;2023-09-07T12:00:32;31.60;99.90
15819;DHT22;8010;53.986;12.106;2023-09-07T12:02:58;31.70;99.90
15819;DHT22;8010;53.986;12.106;2023-09-07T12:05:23;31.90;99.90
15819;DHT22;8010;53.986;12.106;2023-09-07T12:07:49;32.00;99.90
15819;DHT22;8010;53.986;12.106;2023-09-07T12:10:15;32.20;99.90
15819;DHT22;8010;53.986;12.106;2023-09-07T12:12:41;32.30;99.90
15819;DHT22;8010;53.986;12.106;2023-09-07T12:15:06;32.50;99.90
15819;DHT22;8010;53.986;12.106;2023-09-07T12:17:33;32.50;99.90
15819;DHT22;8010;53.986;12.106;2023-09-07T12:19:59;32.50;99.90
15819;DHT22;8010;53.986;12.106;2023-09-07T12:22:25;32.50;99.90
15819;DHT22;8010;53.986;12.106;2023-09-07T12:24:51;32.50;99.90
15819;DHT22;8010;53.986;12.106;2023-09-07T12:27:16;32.70;99.90
15819;DHT22;8010;53.986;12.106;2023-09-07T12:29:42;32.80;99.90
15819;DHT22;8010;53.986;12.106;2023-09-07T12:32:07;33.00;99.90
15819;DHT22;8010;53.986;12.106;2023-09-07T12:34:33;32.70;99.90
15819;DHT22;8010;53.986;12.106;2023-09-07T12:36:58;32.80;99.90
15819;DHT22;8010;53.986;12.106;2023-09-07T12:39:24;32.90;99.90
15819;DHT22;8010;53.986;12.106;2023-09-07T12:41:50;32.60;99.90
15819;DHT22;8010;53.986;12.106;2023-09-07T12:44:15;32.50;99.90
15819;DHT22;8010;53.986;12.106;2023-09-07T12:46:43;32.30;99.90
15819;DHT22;8010;53.986;12.106;2023-09-07T12:49:09;32.20;99.90
15819;DHT22;8010;53.986;12.106;2023-09-07T12:51:35;32.30;99.90
15819;DHT22;8010;53.986;12.106;2023-09-07T12:54:00;32.20;99.90
15819;DHT22;8010;53.986;12.106;2023-09-07T12:56:26;32.30;99.90
15819;DHT22;8010;53.986;12.106;2023-09-07T12:58:51;32.60;99.90
15819;DHT22;8010;53.986;12.106;2023-09-07T13:01:17;32.70;99.90
15819;DHT22;8010;53.986;12.106;2023-09-07T13:03:43;32.70;99.90
15819;DHT22;8010;53.986;12.106;2023-09-07T13:06:09;32.80;99.90
15819;DHT22;8010;53.986;12.106;2023-09-07T13:08:35;33.50;99.90
15819;DHT22;8010;53.986;12.106;2023-09-07T13:11:01;33.80;99.90
15819;DHT22;8010;53.986;12.106;2023-09-07T13:13:26;33.20;99.90
15819;DHT22;8010;53.986;12.106;2023-09-07T13:15:55;33.10;99.90
15819;DHT22;8010;53.986;12.106;2023-09-07T13:18:21;33.00;99.90
15819;DHT22;8010;53.986;12.106;2023-09-07T13:20:47;33.20;99.90
15819;DHT22;8010;53.986;12.106;2023-09-07T13:23:15;33.10;99.90
15819;DHT22;8010;53.986;12.106;2023-09-07T13:25:40;33.10;99.90
15819;DHT22;8010;53.986;12.106;2023-09-07T13:28:06;33.30;99.90
15819;DHT22;8010;53.986;12.106;2023-09-07T13:30:31;33.30;99.90
15819;DHT22;8010;53.986;12.106;2023-09-07T13:32:57;33.80;99.90
15819;DHT22;8010;53.986;12.106;2023-09-07T13:35:22;33.20;99.90
15819;DHT22;8010;53.986;12.106;2023-09-07T13:37:48;33.40;99.90
15819;DHT22;8010;53.986;12.106;2023-09-07T13:40:13;33.60;99.90
15819;DHT22;8010;53.986;12.106;2023-09-07T13:42:40;33.60;99.90
15819;DHT22;8010;53.986;12.106;2023-09-07T13:45:06;33.80;99.90
15819;DHT22;8010;53.986;12.106;2023-09-07T13:47:32;33.60;99.90
15819;DHT22;8010;53.986;12.106;2023-09-07T13:49:57;33.70;99.90
15819;DHT22;8010;53.986;12.106;2023-09-07T13:52:23;33.90;99.90
15819;DHT22;8010;53.986;12.106;2023-09-07T13:54:48;33.50;99.90
15819;DHT22;8010;53.986;12.106;2023-09-07T13:57:14;33.60;99.90
15819;DHT22;8010;53.986;12.106;2023-09-07T13:59:39;33.60;99.90
15819;DHT22;8010;53.986;12.106;2023-09-07T14:02:05;33.80;99.90
15819;DHT22;8010;53.986;12.106;2023-09-07T14:04:31;33.90;99.90
15819;DHT22;8010;53.986;12.106;2023-09-07T14:06:56;34.00;99.90
15819;DHT22;8010;53.986;12.106;2023-09-07T14:09:22;34.20;99.90
15819;DHT22;8010;53.986;12.106;2023-09-07T14:11:48;34.20;99.90
15819;DHT22;8010;53.986;12.106;2023-09-07T14:14:14;34.20;99.90
15819;DHT22;8010;53.986;12.106;2023-09-07T14:16:40;34.20;99.90
15819;DHT22;8010;53.986;12.106;2023-09-07T14:19:06;34.30;99.90
15819;DHT22;8010;53.986;12.106;2023-09-07T14:21:31;34.50;99.90
15819;DHT22;8010;53.986;12.106;2023-09-07T14:23:57;34.90;99.90
15819;DHT22;8010;53.986;12.106;2023-09-07T14:26:23;34.30;99.90
15819;DHT22;8010;53.986;12.106;2023-09-07T14:28:48;34.30;99.90
15819;DHT22;8010;53.986;12.106;2023-09-07T14:31:14;34.20;99.90
15819;DHT22;8010;53.986;12.106;2023-09-07T14:33:40;34.30;99.90
15819;DHT22;8010;53.986;12.106;2023-09-07T14:36:08;34.10;99.90
15819;DHT22;8010;53.986;12.106;2023-09-07T14:38:34;34.00;99.90
15819;DHT22;8010;53.986;12.106;2023-09-07T14:41:05;34.00;99.90
15819;DHT22;8010;53.986;12.106;2023-09-07T14:43:31;34.10;99.90
15819;DHT22;8010;53.986;12.106;2023-09-07T14:45:57;34.10;99.90
15819;DHT22;8010;53.986;12.106;2023-09-07T14:48:22;34.10;99.90
15819;DHT22;8010;53.986;12.106;2023-09-07T14:50:48;34.10;99.90
15819;DHT22;8010;53.986;12.106;2023-09-07T14:53:14;34.10;99.90
15819;DHT22;8010;53.986;12.106;2023-09-07T14:55:39;34.00;99.90
15819;DHT22;8010;53.986;12.106;2023-09-07T14:58:05;33.90;99.90
15819;DHT22;8010;53.986;12.106;2023-09-07T15:00:34;33.90;99.90
15819;DHT22;8010;53.986;12.106;2023-09-07T15:02:59;33.90;99.90
15819;DHT22;8010;53.986;12.106;2023-09-07T15:05:25;33.80;99.90
15819;DHT22;8010;53.986;12.106;2023-09-07T15:07:50;33.80;99.90
15819;DHT22;8010;53.986;12.106;2023-09-07T15:10:16;34.00;99.90
15819;DHT22;8010;53.986;12.106;2023-09-07T15:12:41;33.80;99.90
15819;DHT22;8010;53.986;12.106;2023-09-07T15:15:07;33.70;99.90
15819;DHT22;8010;53.986;12.106;2023-09-07T15:17:38;33.60;99.90
15819;DHT22;8010;53.986;12.106;2023-09-07T15:20:05;33.50;99.90
15819;DHT22;8010;53.986;12.106;2023-09-07T15:22:31;33.50;99.90
15819;DHT22;8010;53.986;12.106;2023-09-07T15:24:58;33.40;99.90